Time;durP1;ratioP1;P1;durP2;ratioP2;P2;SDS_P1;SDS_P2;PMS_P1;PMS_P2;Temp;Humidity;BMP_temperature;BMP_pressure;BME280_temperature;BME280_humidity;BME280_pressure;Samples;Min_cycle;Max_cycle;Signal;HPM_P1;HPM_P2
2023/03/22 00:01:31;;;;;;;49.75;26.42;;;;;;;;;;6360250;27;20055;-78
2023/03/22 00:04:33;;;;;;;49.05;24.60;;;;;;;;;;6360837;27;20381;-78
2023/03/22 00:07:36;;;;;;;52.83;26.30;;;;;;;;;;6357812;27;20063;-77
2023/03/22 00:10:40;;;;;;;140.95;78.50;;;;;;;;;;6366665;27;20079;-76
2023/03/22 00:13:42;;;;;;;116.15;62.00;;;;;;;;;;6362852;27;20137;-77
2023/03/22 00:16:47;;;;;;;79.00;45.47;;;;;;;;;;6363761;28;20061;-77
2023/03/22 00:19:49;;;;;;;74.13;42.88;;;;;;;;;;6363260;27;20059;-77
2023/03/22 00:22:51;;;;;;;133.18;71.50;;;;;;;;;;6362239;27;20063;-77
2023/03/22 00:25:55;;;;;;;75.32;40.90;;;;;;;;;;6366713;27;20217;-78
2023/03/22 00:28:58;;;;;;;56.22;30.20;;;;;;;;;;6363653;27;20059;-79
2023/03/22 00:32:00;;;;;;;46.28;26.90;;;;;;;;;;6365969;27;20179;-79
2023/03/22 00:35:02;;;;;;;42.70;25.27;;;;;;;;;;6367184;27;20096;-79
2023/03/22 00:38:13;;;;;;;42.40;26.63;;;;;;;;;;6366558;27;20070;-80
2023/03/22 00:41:17;;;;;;;43.38;27.10;;;;;;;;;;6364708;27;20054;-76
2023/03/22 00:44:18;;;;;;;48.20;27.00;;;;;;;;;;6365686;27;20044;-79
2023/03/22 00:47:21;;;;;;;41.50;26.88;;;;;;;;;;6365076;27;20051;-77
2023/03/22 00:50:23;;;;;;;45.97;29.67;;;;;;;;;;6362449;27;20135;-79
2023/03/22 00:53:27;;;;;;;46.30;27.80;;;;;;;;;;6366732;27;20097;-79
2023/03/22 00:56:37;;;;;;;50.22;29.73;;;;;;;;;;6361263;27;20124;-78
2023/03/22 00:59:38;;;;;;;44.67;28.70;;;;;;;;;;6366713;27;20315;-79
2023/03/22 01:02:41;;;;;;;54.08;30.50;;;;;;;;;;6361755;27;20075;-79
2023/03/22 01:05:44;;;;;;;51.08;30.30;;;;;;;;;;6369391;27;20050;-79
2023/03/22 01:08:49;;;;;;;50.83;30.42;;;;;;;;;;6365892;27;20055;-74
2023/03/22 01:11:52;;;;;;;50.83;30.42;;;;;;;;;;6365774;27;20520;-78
2023/03/22 01:14:54;;;;;;;59.83;30.27;;;;;;;;;;6365419;27;20043;-78
2023/03/22 01:18:17;;;;;;;49.38;30.75;;;;;;;;;;6367936;27;20338;-78
2023/03/22 01:21:19;;;;;;;49.78;30.13;;;;;;;;;;6365512;27;20103;-76
2023/03/22 01:24:23;;;;;;;52.03;31.67;;;;;;;;;;6361320;27;20055;-77
2023/03/22 01:27:25;;;;;;;;;;;;;;;;;;6364547;27;20319;-77
2023/03/22 01:30:27;;;;;;;57.00;32.00;;;;;;;;;;6363219;27;19923;-78
2023/03/22 01:33:29;;;;;;;52.13;31.58;;;;;;;;;;6363247;27;20279;-70
2023/03/22 01:36:31;;;;;;;64.03;34.17;;;;;;;;;;6362394;27;20059;-80
2023/03/22 01:39:33;;;;;;;54.53;31.98;;;;;;;;;;6363962;27;20213;-78
2023/03/22 01:42:39;;;;;;;57.20;32.00;;;;;;;;;;6352879;27;20052;-80
2023/03/22 01:45:45;;;;;;;60.63;32.53;;;;;;;;;;6365468;27;20048;-79
2023/03/22 01:48:57;;;;;;;60.10;32.65;;;;;;;;;;6352474;27;20062;-79
2023/03/22 01:52:04;;;;;;;55.70;34.13;;;;;;;;;;6349260;27;20051;-79
2023/03/22 01:55:39;;;;;;;58.03;32.70;;;;;;;;;;6361897;27;20067;-77
2023/03/22 01:58:42;;;;;;;52.55;31.65;;;;;;;;;;6351012;27;20059;-75
2023/03/22 02:01:45;;;;;;;54.55;31.77;;;;;;;;;;6365208;27;20224;-79
2023/03/22 02:04:49;;;;;;;57.90;34.90;;;;;;;;;;6362677;27;20078;-80
2023/03/22 02:07:51;;;;;;;;;;;;;;;;;;6372199;27;20094;-78
2023/03/22 02:10:53;;;;;;;53.72;32.50;;;;;;;;;;6366417;27;19915;-79
2023/03/22 02:14:30;;;;;;;57.60;33.75;;;;;;;;;;6355217;27;20054;-79
2023/03/22 02:17:41;;;;;;;54.05;33.78;;;;;;;;;;6337812;27;20067;-79
2023/03/22 02:21:11;;;;;;;51.75;31.08;;;;;;;;;;6362805;27;20052;-75
2023/03/22 02:24:45;;;;;;;56.60;33.38;;;;;;;;;;6363249;27;20055;-77
2023/03/22 02:28:24;;;;;;;51.17;32.13;;;;;;;;;;6364181;27;20050;-79
2023/03/22 02:31:47;;;;;;;52.75;32.85;;;;;;;;;;6355915;27;20048;-77
2023/03/22 02:35:20;;;;;;;51.35;32.45;;;;;;;;;;6362827;27;20101;-79
2023/03/22 02:38:56;;;;;;;51.80;34.08;;;;;;;;;;6239655;28;20053;-79
2023/03/22 02:42:32;;;;;;;54.80;34.22;;;;;;;;;;6241464;28;20120;-78
2023/03/22 02:45:36;;;;;;;55.33;33.05;;;;;;;;;;6170100;28;20350;-80
2023/03/22 02:48:42;;;;;;;55.35;33.05;;;;;;;;;;6172945;28;20050;-79
2023/03/22 02:51:46;;;;;;;51.17;31.38;;;;;;;;;;6171574;28;20110;-79
2023/03/22 02:54:53;;;;;;;57.22;33.13;;;;;;;;;;6169994;28;20055;-79
2023/03/22 02:57:57;;;;;;;53.42;33.47;;;;;;;;;;6174452;28;20300;-80
2023/03/22 03:00:59;;;;;;;;;;;;;;;;;;6162158;28;20058;-78
2023/03/22 03:04:07;;;;;;;55.72;32.55;;;;;;;;;;6169357;28;19922;-80
2023/03/22 03:07:10;;;;;;;50.97;32.28;;;;;;;;;;6169537;28;20310;-76
2023/03/22 03:10:15;;;;;;;53.33;32.03;;;;;;;;;;6169863;28;20121;-78
2023/03/22 03:13:18;;;;;;;53.67;33.17;;;;;;;;;;6181128;28;20047;-80
2023/03/22 03:16:21;;;;;;;51.30;32.97;;;;;;;;;;6282563;28;20044;-80
2023/03/22 03:19:28;;;;;;;57.13;33.50;;;;;;;;;;6325580;27;20067;-78
2023/03/22 03:22:38;;;;;;;50.42;31.77;;;;;;;;;;6360962;27;20492;-80
2023/03/22 03:25:46;;;;;;;48.58;31.80;;;;;;;;;;6362494;27;20044;-70
2023/03/22 03:28:52;;;;;;;51.20;31.77;;;;;;;;;;6361220;27;20083;-80
2023/03/22 03:31:57;;;;;;;51.08;33.53;;;;;;;;;;6362355;27;20226;-70
2023/03/22 03:35:04;;;;;;;53.97;32.17;;;;;;;;;;6359266;27;20209;-80
2023/03/22 03:38:08;;;;;;;52.33;32.45;;;;;;;;;;6363555;28;20070;-78
2023/03/22 03:41:14;;;;;;;52.17;33.13;;;;;;;;;;6361752;27;20065;-78
2023/03/22 03:44:17;;;;;;;58.47;34.05;;;;;;;;;;6363774;27;20055;-80
2023/03/22 03:47:19;;;;;;;55.45;34.15;;;;;;;;;;6362103;27;20107;-79
2023/03/22 03:50:21;;;;;;;53.10;33.47;;;;;;;;;;6358546;27;20043;-80
2023/03/22 03:53:23;;;;;;;51.92;32.22;;;;;;;;;;6348559;28;20262;-76
2023/03/22 03:56:26;;;;;;;54.15;33.22;;;;;;;;;;6357332;28;20059;-77
2023/03/22 03:59:30;;;;;;;52.50;32.90;;;;;;;;;;6362637;28;20043;-80
2023/03/22 04:02:32;;;;;;;57.63;33.90;;;;;;;;;;6360665;27;20065;-78
2023/03/22 04:05:34;;;;;;;52.72;32.97;;;;;;;;;;6368772;27;20058;-77
2023/03/22 04:08:35;;;;;;;54.88;33.50;;;;;;;;;;6368273;27;20062;-71
2023/03/22 04:11:38;;;;;;;50.50;33.13;;;;;;;;;;6365932;27;20454;-76
2023/03/22 04:14:40;;;;;;;53.42;33.85;;;;;;;;;;6364858;27;20089;-82
2023/03/22 04:17:54;;;;;;;57.25;33.15;;;;;;;;;;6343867;27;20053;-79
2023/03/22 04:20:56;;;;;;;50.38;32.50;;;;;;;;;;6365157;27;20043;-79
2023/03/22 04:23:57;;;;;;;55.17;32.72;;;;;;;;;;6370213;27;20355;-77
2023/03/22 04:27:01;;;;;;;52.70;32.58;;;;;;;;;;6371776;27;20039;-78
2023/03/22 04:30:03;;;;;;;48.07;33.03;;;;;;;;;;6370261;27;20362;-76
2023/03/22 04:33:06;;;;;;;47.30;32.33;;;;;;;;;;6370189;27;20057;-78
2023/03/22 04:36:10;;;;;;;55.65;33.85;;;;;;;;;;6367330;27;20081;-74
2023/03/22 04:39:12;;;;;;;55.75;31.67;;;;;;;;;;6369785;27;20068;-79
2023/03/22 04:42:15;;;;;;;58.55;34.67;;;;;;;;;;6369543;27;20374;-72
2023/03/22 04:45:17;;;;;;;50.13;31.47;;;;;;;;;;6367088;27;20043;-75
2023/03/22 04:48:20;;;;;;;52.67;32.85;;;;;;;;;;6365478;27;20055;-77
2023/03/22 04:51:22;;;;;;;54.13;33.50;;;;;;;;;;6367827;27;20358;-79
2023/03/22 04:54:24;;;;;;;52.90;33.90;;;;;;;;;;6366323;27;20067;-75
2023/03/22 04:57:27;;;;;;;55.30;33.30;;;;;;;;;;6372213;27;20043;-79
2023/03/22 05:00:29;;;;;;;56.10;32.90;;;;;;;;;;6366225;27;20078;-77
2023/03/22 05:03:31;;;;;;;54.95;33.55;;;;;;;;;;6368988;27;20050;-77
2023/03/22 05:06:33;;;;;;;54.83;32.38;;;;;;;;;;6363942;27;20047;-76
2023/03/22 05:09:35;;;;;;;53.38;32.30;;;;;;;;;;6362808;27;20051;-76
2023/03/22 05:12:38;;;;;;;54.72;31.98;;;;;;;;;;6362807;27;20067;-75
2023/03/22 05:15:40;;;;;;;42.15;25.00;;;;;;;;;;6362653;27;20129;-76
2023/03/22 05:18:44;;;;;;;57.65;33.17;;;;;;;;;;6362450;27;20047;-76
2023/03/22 05:21:47;;;;;;;51.00;31.83;;;;;;;;;;6367150;27;20042;-76
2023/03/22 05:24:50;;;;;;;56.75;33.28;;;;;;;;;;6364087;27;20195;-73
2023/03/22 05:27:53;;;;;;;53.97;32.03;;;;;;;;;;6362775;27;20123;-77
2023/03/22 05:30:55;;;;;;;52.40;32.67;;;;;;;;;;6361994;27;20057;-76
2023/03/22 05:33:56;;;;;;;53.42;31.42;;;;;;;;;;6362625;27;20154;-71
2023/03/22 05:36:59;;;;;;;56.67;33.22;;;;;;;;;;6364588;27;20046;-73
2023/03/22 05:40:01;;;;;;;57.63;32.80;;;;;;;;;;6363456;27;20052;-74
2023/03/22 05:43:04;;;;;;;54.55;32.58;;;;;;;;;;6348983;27;20047;-76
2023/03/22 05:46:07;;;;;;;60.13;32.00;;;;;;;;;;6362459;27;20051;-76
2023/03/22 05:49:09;;;;;;;51.35;32.60;;;;;;;;;;6364713;27;20178;-74
2023/03/22 05:52:11;;;;;;;53.85;32.15;;;;;;;;;;6360731;27;20391;-77
2023/03/22 05:55:16;;;;;;;55.38;32.33;;;;;;;;;;6361873;27;20116;-77
2023/03/22 05:58:33;;;;;;;;;;;;;;;;;;;;;
2023/03/22 06:01:35;;;;;;;53.75;32.28;;;;;;;;;;6359900;27;20134;-73
2023/03/22 06:04:37;;;;;;;60.15;33.10;;;;;;;;;;6361278;27;20055;-76
2023/03/22 06:07:39;;;;;;;56.78;33.33;;;;;;;;;;6362449;27;20047;-75
2023/03/22 06:10:41;;;;;;;59.83;33.13;;;;;;;;;;6350661;27;20055;-76
2023/03/22 06:13:44;;;;;;;55.90;32.78;;;;;;;;;;6363048;27;20184;-75
2023/03/22 06:16:46;;;;;;;60.20;34.00;;;;;;;;;;6353485;27;20239;-77
2023/03/22 06:19:48;;;;;;;59.17;33.10;;;;;;;;;;6365363;27;20070;-77
2023/03/22 06:22:50;;;;;;;49.70;31.92;;;;;;;;;;6359890;27;20059;-72
2023/03/22 06:25:52;;;;;;;54.22;32.30;;;;;;;;;;6362606;27;20043;-75
2023/03/22 06:28:58;;;;;;;53.28;33.22;;;;;;;;;;6361719;27;20115;-75
2023/03/22 06:32:00;;;;;;;60.20;34.78;;;;;;;;;;6361924;27;20047;-74
2023/03/22 06:35:04;;;;;;;57.97;33.92;;;;;;;;;;6362073;27;20053;-76
2023/03/22 06:38:06;;;;;;;52.72;33.22;;;;;;;;;;6361401;27;20061;-76
2023/03/22 06:41:08;;;;;;;57.90;33.20;;;;;;;;;;6360252;27;20063;-70
2023/03/22 06:44:11;;;;;;;52.83;33.03;;;;;;;;;;6364768;27;20043;-76
2023/03/22 06:47:27;;;;;;;54.57;32.63;;;;;;;;;;6364946;27;20051;-75
2023/03/22 06:50:29;;;;;;;52.28;32.53;;;;;;;;;;6364896;27;20481;-77
2023/03/22 06:53:42;;;;;;;55.85;32.42;;;;;;;;;;6362126;27;20099;-81
2023/03/22 06:57:17;;;;;;;88.40;52.97;;;;;;;;;;6365157;27;20106;-75
2023/03/22 07:00:21;;;;;;;67.88;43.40;;;;;;;;;;6335567;27;20136;-77
2023/03/22 07:03:26;;;;;;;58.03;35.40;;;;;;;;;;6363055;27;20059;-78
2023/03/22 07:06:28;;;;;;;58.78;35.78;;;;;;;;;;6359097;27;20385;-78
2023/03/22 07:09:29;;;;;;;51.28;35.13;;;;;;;;;;6357960;27;20110;-78
2023/03/22 07:12:31;;;;;;;53.83;33.55;;;;;;;;;;6363264;27;20281;-79
2023/03/22 07:15:35;;;;;;;55.58;32.92;;;;;;;;;;6359425;27;20151;-80
2023/03/22 07:18:37;;;;;;;53.28;33.42;;;;;;;;;;6361740;27;20331;-78
2023/03/22 07:21:38;;;;;;;57.65;35.90;;;;;;;;;;6359167;27;20050;-73
2023/03/22 07:24:40;;;;;;;54.40;33.97;;;;;;;;;;6361505;27;20039;-74
2023/03/22 07:27:42;;;;;;;128.60;79.95;;;;;;;;;;6359353;27;20119;-79
2023/03/22 07:30:45;;;;;;;56.85;37.42;;;;;;;;;;6357671;28;20093;-79
2023/03/22 07:33:50;;;;;;;57.00;34.50;;;;;;;;;;6360021;28;20047;-71
2023/03/22 07:36:52;;;;;;;57.13;34.80;;;;;;;;;;6359503;28;20440;-75
2023/03/22 07:39:54;;;;;;;51.20;34.63;;;;;;;;;;6364966;27;20112;-72
2023/03/22 07:42:57;;;;;;;55.70;34.97;;;;;;;;;;6365336;27;20047;-77
2023/03/22 07:46:00;;;;;;;58.53;35.25;;;;;;;;;;6366567;27;20084;-75
2023/03/22 07:49:02;;;;;;;57.67;35.35;;;;;;;;;;6367204;27;20051;-73
2023/03/22 07:52:05;;;;;;;88.90;54.15;;;;;;;;;;6354663;27;20051;-79
2023/03/22 07:55:07;;;;;;;107.47;66.78;;;;;;;;;;6368096;27;20114;-74
2023/03/22 07:58:09;;;;;;;71.75;45.92;;;;;;;;;;6365550;27;20051;-79
2023/03/22 08:01:12;;;;;;;57.38;36.78;;;;;;;;;;6365868;27;20044;-75
2023/03/22 08:04:14;;;;;;;57.00;37.22;;;;;;;;;;6363791;27;20122;-77
2023/03/22 08:07:17;;;;;;;61.00;38.72;;;;;;;;;;6365649;27;20111;-79
2023/03/22 08:10:19;;;;;;;63.45;37.13;;;;;;;;;;6366029;27;20054;-71
2023/03/22 08:13:27;;;;;;;62.65;37.13;;;;;;;;;;6365980;27;20051;-72
2023/03/22 08:16:31;;;;;;;57.03;36.88;;;;;;;;;;6366099;27;20054;-75
2023/03/22 08:19:33;;;;;;;60.08;38.58;;;;;;;;;;6369783;27;20960;-81
2023/03/22 08:23:16;;;;;;;62.50;38.70;;;;;;;;;;6370012;27;20063;-81
2023/03/22 08:26:36;;;;;;;60.75;39.17;;;;;;;;;;6366519;27;20054;-76
2023/03/22 08:29:38;;;;;;;65.18;39.70;;;;;;;;;;6364966;27;20078;-77
2023/03/22 08:32:41;;;;;;;58.97;39.05;;;;;;;;;;6365509;27;20055;-79
2023/03/22 08:35:43;;;;;;;57.10;38.95;;;;;;;;;;6364319;27;20277;-78
2023/03/22 08:38:46;;;;;;;59.10;39.53;;;;;;;;;;6366858;27;20114;-76
2023/03/22 08:41:47;;;;;;;57.70;39.45;;;;;;;;;;6364581;27;20047;-76
2023/03/22 08:44:50;;;;;;;63.70;41.38;;;;;;;;;;6363498;27;20039;-78
2023/03/22 08:47:54;;;;;;;62.47;41.15;;;;;;;;;;6365735;27;20160;-79
2023/03/22 08:50:56;;;;;;;57.38;39.70;;;;;;;;;;6363687;27;20055;-76
2023/03/22 08:53:59;;;;;;;66.45;42.80;;;;;;;;;;6365301;27;20254;-77
2023/03/22 08:57:02;;;;;;;65.07;42.15;;;;;;;;;;6363409;27;20057;-78
2023/03/22 09:00:09;;;;;;;59.05;40.42;;;;;;;;;;6366706;27;20049;-77
2023/03/22 09:03:16;;;;;;;59.50;40.53;;;;;;;;;;6364248;27;20071;-81
2023/03/22 09:06:18;;;;;;;59.92;39.45;;;;;;;;;;6364510;27;20106;-76
2023/03/22 09:09:20;;;;;;;60.63;41.15;;;;;;;;;;6363265;27;20181;-76
2023/03/22 09:12:21;;;;;;;60.97;38.88;;;;;;;;;;6360770;27;20736;-74
2023/03/22 09:15:23;;;;;;;59.97;42.10;;;;;;;;;;6366864;27;20055;-78
2023/03/22 09:18:27;;;;;;;62.30;41.58;;;;;;;;;;6365675;27;20051;-72
2023/03/22 09:21:29;;;;;;;54.10;38.90;;;;;;;;;;6361787;27;20061;-80
2023/03/22 09:24:31;;;;;;;97.22;67.38;;;;;;;;;;6371236;27;20051;-79
2023/03/22 09:27:33;;;;;;;99.40;66.22;;;;;;;;;;6373147;27;20039;-78
2023/03/22 09:30:34;;;;;;;102.47;70.07;;;;;;;;;;6372194;27;20058;-79
2023/03/22 09:33:40;;;;;;;73.97;48.70;;;;;;;;;;6373824;27;20053;-80
2023/03/22 09:36:42;;;;;;;75.32;50.78;;;;;;;;;;6370007;27;20118;-81
2023/03/22 09:39:44;;;;;;;54.95;40.28;;;;;;;;;;6369423;27;20325;-75
2023/03/22 09:42:48;;;;;;;50.78;37.78;;;;;;;;;;6368185;27;20058;-74
2023/03/22 09:45:51;;;;;;;50.70;37.53;;;;;;;;;;6369689;27;20395;-76
2023/03/22 09:48:54;;;;;;;52.47;37.25;;;;;;;;;;6365422;27;20090;-76
2023/03/22 09:51:56;;;;;;;52.22;38.00;;;;;;;;;;6362230;27;20453;-75
2023/03/22 09:54:59;;;;;;;53.00;38.15;;;;;;;;;;6366611;27;20046;-76
2023/03/22 09:58:05;;;;;;;46.63;36.50;;;;;;;;;;6363859;27;20052;-76
2023/03/22 10:01:17;;;;;;;57.92;40.83;;;;;;;;;;6362043;27;20051;-76
2023/03/22 10:04:43;;;;;;;49.72;38.03;;;;;;;;;;6361985;27;20123;-75
2023/03/22 10:08:09;;;;;;;53.95;40.28;;;;;;;;;;6359661;27;20058;-77
2023/03/22 10:11:16;;;;;;;52.90;40.63;;;;;;;;;;6350281;27;20059;-75
2023/03/22 10:14:28;;;;;;;51.22;40.05;;;;;;;;;;6364694;27;20043;-75
2023/03/22 10:17:30;;;;;;;53.78;40.53;;;;;;;;;;6364286;27;20050;-75
2023/03/22 10:20:39;;;;;;;48.55;36.80;;;;;;;;;;6362260;27;20051;-75
2023/03/22 10:23:45;;;;;;;48.22;36.67;;;;;;;;;;6361217;27;20059;-72
2023/03/22 10:26:49;;;;;;;47.92;37.13;;;;;;;;;;6362420;27;20293;-73
2023/03/22 10:29:52;;;;;;;43.40;35.00;;;;;;;;;;6362312;27;20050;-76
2023/03/22 10:32:58;;;;;;;45.22;33.65;;;;;;;;;;6363610;27;20043;-76
2023/03/22 10:36:02;;;;;;;43.92;33.83;;;;;;;;;;6362582;27;20123;-75
2023/03/22 10:39:06;;;;;;;45.85;35.58;;;;;;;;;;6362852;27;20047;-75
2023/03/22 10:42:11;;;;;;;40.60;32.42;;;;;;;;;;6361483;27;20063;-75
2023/03/22 10:45:14;;;;;;;40.65;32.70;;;;;;;;;;6362305;27;20130;-72
2023/03/22 10:48:26;;;;;;;42.53;31.80;;;;;;;;;;6364106;27;20051;-79
2023/03/22 10:51:34;;;;;;;51.63;37.28;;;;;;;;;;6361993;27;20135;-74
2023/03/22 10:54:36;;;;;;;48.65;37.17;;;;;;;;;;6358114;27;20100;-78
2023/03/22 10:57:41;;;;;;;45.90;34.93;;;;;;;;;;6360929;27;20288;-77
2023/03/22 11:00:45;;;;;;;45.75;34.85;;;;;;;;;;6360778;27;20080;-78
2023/03/22 11:03:49;;;;;;;45.33;34.55;;;;;;;;;;6359597;27;20063;-78
2023/03/22 11:06:53;;;;;;;47.25;34.85;;;;;;;;;;6358677;27;20154;-78
2023/03/22 11:10:14;;;;;;;44.15;33.15;;;;;;;;;;6361484;27;20055;-77
2023/03/22 11:13:21;;;;;;;42.97;32.60;;;;;;;;;;6337710;27;20069;-78
2023/03/22 11:16:23;;;;;;;39.75;29.55;;;;;;;;;;6350749;27;20051;-76
2023/03/22 11:19:28;;;;;;;38.05;27.60;;;;;;;;;;6363597;27;20053;-79
2023/03/22 11:22:34;;;;;;;38.95;29.83;;;;;;;;;;6362546;27;20086;-77
2023/03/22 11:25:38;;;;;;;41.00;28.88;;;;;;;;;;6358978;27;20306;-72
2023/03/22 11:28:42;;;;;;;34.22;25.65;;;;;;;;;;6364372;27;20055;-76
2023/03/22 11:31:53;;;;;;;32.58;21.70;;;;;;;;;;6361191;27;20092;-78
2023/03/22 11:35:02;;;;;;;31.73;20.92;;;;;;;;;;6359792;28;20347;-77
2023/03/22 11:38:06;;;;;;;32.25;20.85;;;;;;;;;;6360225;27;20571;-78
2023/03/22 11:41:10;;;;;;;28.00;20.80;;;;;;;;;;6359918;28;20196;-76
2023/03/22 11:44:13;;;;;;;30.10;20.60;;;;;;;;;;6360068;27;20043;-76
2023/03/22 11:47:15;;;;;;;29.08;19.83;;;;;;;;;;6361492;28;20335;-77
2023/03/22 11:50:27;;;;;;;57.65;43.17;;;;;;;;;;6360142;27;20216;-77
2023/03/22 11:53:33;;;;;;;64.43;49.95;;;;;;;;;;6358281;28;20047;-77
2023/03/22 11:56:40;;;;;;;30.00;21.42;;;;;;;;;;6359255;27;20052;-76
2023/03/22 11:59:47;;;;;;;28.67;19.83;;;;;;;;;;6357341;27;20055;-77
2023/03/22 12:02:51;;;;;;;29.65;20.63;;;;;;;;;;6357454;28;20047;-78
2023/03/22 12:05:53;;;;;;;23.23;17.05;;;;;;;;;;6359415;27;20216;-77
2023/03/22 12:08:59;;;;;;;28.15;18.95;;;;;;;;;;6358230;28;20055;-76
2023/03/22 12:12:02;;;;;;;26.80;18.90;;;;;;;;;;6361991;27;20067;-77
2023/03/22 12:15:06;;;;;;;24.15;16.10;;;;;;;;;;6361932;27;20047;-78
2023/03/22 12:18:11;;;;;;;24.92;16.75;;;;;;;;;;6362251;28;20354;-74
2023/03/22 12:21:14;;;;;;;21.48;15.07;;;;;;;;;;6359086;27;20043;-74
2023/03/22 12:24:28;;;;;;;24.88;15.38;;;;;;;;;;6360649;27;20120;-73
2023/03/22 12:27:34;;;;;;;31.52;15.70;;;;;;;;;;6363038;27;20077;-75
2023/03/22 12:30:39;;;;;;;23.50;15.32;;;;;;;;;;6366363;27;20043;-77
2023/03/22 12:33:44;;;;;;;21.90;15.60;;;;;;;;;;6363043;27;20059;-77
2023/03/22 12:36:48;;;;;;;22.70;15.98;;;;;;;;;;6364404;27;20055;-78
2023/03/22 12:39:54;;;;;;;20.67;15.70;;;;;;;;;;6365994;27;20347;-78
2023/03/22 12:43:01;;;;;;;23.95;16.25;;;;;;;;;;6364675;27;20065;-72
2023/03/22 12:46:05;;;;;;;24.83;18.38;;;;;;;;;;6364467;27;20043;-78
2023/03/22 12:49:14;;;;;;;25.67;17.30;;;;;;;;;;6364966;27;20618;-78
2023/03/22 12:52:19;;;;;;;19.30;13.45;;;;;;;;;;6366763;27;20066;-78
2023/03/22 12:55:26;;;;;;;22.20;14.18;;;;;;;;;;6368762;27;20046;-81
2023/03/22 12:58:28;;;;;;;43.15;31.92;;;;;;;;;;6369978;27;20066;-79
2023/03/22 13:01:33;;;;;;;26.97;18.73;;;;;;;;;;6369650;27;20062;-79
2023/03/22 13:04:50;;;;;;;21.08;15.52;;;;;;;;;;6364733;27;20468;-79
2023/03/22 13:07:57;;;;;;;19.35;13.63;;;;;;;;;;6367101;27;20086;-76
2023/03/22 13:11:16;;;;;;;20.73;13.35;;;;;;;;;;6363855;27;20047;-75
2023/03/22 13:14:56;;;;;;;21.13;15.05;;;;;;;;;;6363319;27;20397;-77
2023/03/22 13:18:01;;;;;;;19.25;13.85;;;;;;;;;;6365677;27;20296;-78
2023/03/22 13:21:11;;;;;;;19.25;14.02;;;;;;;;;;6361250;27;20059;-80
2023/03/22 13:24:21;;;;;;;21.65;14.00;;;;;;;;;;6364870;27;20108;-78
2023/03/22 13:27:34;;;;;;;21.52;14.85;;;;;;;;;;6363574;27;20047;-79
2023/03/22 13:30:47;;;;;;;21.10;13.30;;;;;;;;;;6365187;27;20357;-80
2023/03/22 13:33:53;;;;;;;29.90;22.88;;;;;;;;;;6363598;27;20065;-79
2023/03/22 13:36:56;;;;;;;17.20;12.23;;;;;;;;;;6361920;27;20047;-77
2023/03/22 13:40:01;;;;;;;21.77;13.52;;;;;;;;;;6363509;27;20079;-80
2023/03/22 13:43:14;;;;;;;19.83;12.40;;;;;;;;;;6363347;27;20171;-79
2023/03/22 13:46:46;;;;;;;18.55;12.38;;;;;;;;;;6362435;27;20048;-77
2023/03/22 13:49:50;;;;;;;17.83;11.45;;;;;;;;;;6264772;28;20427;-79
2023/03/22 13:52:54;;;;;;;21.45;11.75;;;;;;;;;;6262852;28;20065;-79
2023/03/22 13:56:02;;;;;;;17.00;12.13;;;;;;;;;;6261312;28;20053;-80
2023/03/22 13:59:05;;;;;;;15.95;12.35;;;;;;;;;;6259113;28;20056;-79
2023/03/22 14:02:17;;;;;;;15.25;11.45;;;;;;;;;;6259332;28;20057;-79
2023/03/22 14:05:21;;;;;;;16.93;12.70;;;;;;;;;;6261110;28;20151;-77
2023/03/22 14:08:28;;;;;;;14.93;11.25;;;;;;;;;;6257423;28;20363;-79
2023/03/22 14:11:35;;;;;;;15.32;9.88;;;;;;;;;;6261095;28;20353;-76
2023/03/22 14:14:42;;;;;;;18.10;10.00;;;;;;;;;;6258073;28;20057;-76
2023/03/22 14:17:46;;;;;;;15.82;10.18;;;;;;;;;;6262562;28;20068;-79
2023/03/22 14:20:51;;;;;;;14.98;10.02;;;;;;;;;;6257570;28;20045;-78
2023/03/22 14:23:55;;;;;;;12.10;8.60;;;;;;;;;;6269140;27;20106;-80
2023/03/22 14:26:57;;;;;;;9.43;7.50;;;;;;;;;;6362740;27;20051;-80
2023/03/22 14:30:01;;;;;;;12.57;7.18;;;;;;;;;;6359264;27;20347;-78
2023/03/22 14:33:07;;;;;;;12.15;7.40;;;;;;;;;;6360415;27;20059;-77
2023/03/22 14:36:12;;;;;;;9.63;6.40;;;;;;;;;;6362316;27;20055;-76
2023/03/22 14:39:16;;;;;;;12.82;7.90;;;;;;;;;;6361770;27;20047;-79
2023/03/22 14:42:25;;;;;;;13.20;7.53;;;;;;;;;;6362399;27;20051;-79
2023/03/22 14:45:28;;;;;;;11.90;6.18;;;;;;;;;;6360280;27;20276;-80
2023/03/22 14:48:31;;;;;;;12.00;7.50;;;;;;;;;;6361669;27;20046;-78
2023/03/22 14:51:35;;;;;;;15.13;8.25;;;;;;;;;;6363311;27;20086;-80
2023/03/22 14:54:38;;;;;;;10.23;7.00;;;;;;;;;;6361756;27;20055;-80
2023/03/22 14:57:43;;;;;;;13.77;7.05;;;;;;;;;;6363252;27;20047;-81
2023/03/22 15:00:47;;;;;;;11.68;7.20;;;;;;;;;;6360230;27;20143;-80
2023/03/22 15:03:52;;;;;;;11.90;7.10;;;;;;;;;;6359793;27;20043;-80
2023/03/22 15:06:56;;;;;;;11.85;8.35;;;;;;;;;;6362360;27;20047;-80
2023/03/22 15:10:11;;;;;;;12.10;8.13;;;;;;;;;;6362327;27;20076;-80
2023/03/22 15:13:13;;;;;;;12.15;8.30;;;;;;;;;;6361262;27;20096;-80
2023/03/22 15:16:18;;;;;;;13.55;8.73;;;;;;;;;;6358513;27;20047;-80
2023/03/22 15:19:22;;;;;;;14.30;9.65;;;;;;;;;;6365705;27;20047;-76
2023/03/22 15:22:23;;;;;;;16.67;8.95;;;;;;;;;;6359128;27;20055;-80
2023/03/22 15:25:30;;;;;;;10.27;8.07;;;;;;;;;;6359588;27;20179;-78
2023/03/22 15:28:37;;;;;;;12.57;8.15;;;;;;;;;;6361736;27;20055;-81
2023/03/22 15:31:43;;;;;;;14.40;8.40;;;;;;;;;;6359929;27;20111;-81
2023/03/22 15:34:46;;;;;;;12.48;7.50;;;;;;;;;;6358933;27;20043;-79
2023/03/22 15:37:51;;;;;;;12.27;8.80;;;;;;;;;;6361520;27;20043;-73
2023/03/22 15:40:53;;;;;;;11.30;8.02;;;;;;;;;;6358009;27;20051;-79
2023/03/22 15:44:13;;;;;;;10.77;7.43;;;;;;;;;;6357671;27;20111;-80
2023/03/22 15:47:18;;;;;;;9.98;7.10;;;;;;;;;;6359930;27;20465;-77
2023/03/22 15:50:22;;;;;;;12.50;7.53;;;;;;;;;;6362141;27;20063;-80
2023/03/22 15:53:28;;;;;;;11.80;7.13;;;;;;;;;;6360879;27;20051;-81
2023/03/22 15:56:31;;;;;;;11.18;7.22;;;;;;;;;;6360180;27;20407;-81
2023/03/22 15:59:32;;;;;;;;;;;;;;;;;;6362664;27;20230;-80
2023/03/22 16:02:36;;;;;;;11.45;7.20;;;;;;;;;;6366980;27;19915;-76
2023/03/22 16:05:39;;;;;;;13.07;7.70;;;;;;;;;;6365629;27;20058;-79
2023/03/22 16:08:41;;;;;;;11.02;7.00;;;;;;;;;;6365904;27;20326;-81
2023/03/22 16:11:44;;;;;;;10.52;6.93;;;;;;;;;;6369834;27;20391;-80
2023/03/22 16:14:46;;;;;;;25.23;18.23;;;;;;;;;;6366653;27;20174;-79
2023/03/22 16:17:49;;;;;;;15.32;6.43;;;;;;;;;;6368747;27;20135;-75
2023/03/22 16:20:52;;;;;;;10.50;5.65;;;;;;;;;;6376540;27;20051;-79
2023/03/22 16:23:55;;;;;;;9.38;5.00;;;;;;;;;;6371097;27;20063;-79
2023/03/22 16:26:57;;;;;;;7.85;5.13;;;;;;;;;;6367659;27;20044;-81
2023/03/22 16:29:59;;;;;;;10.23;5.20;;;;;;;;;;6370164;27;20047;-80
2023/03/22 16:33:02;;;;;;;10.13;6.47;;;;;;;;;;6364267;27;20358;-78
2023/03/22 16:36:07;;;;;;;;;;;;;;;;;;6363773;27;20055;-82
2023/03/22 16:39:09;;;;;;;10.20;5.78;;;;;;;;;;6364807;27;19965;-79
2023/03/22 16:42:15;;;;;;;10.73;6.30;;;;;;;;;;6363436;27;20051;-80
2023/03/22 16:45:24;;;;;;;9.35;6.40;;;;;;;;;;6364238;27;20266;-77
2023/03/22 16:48:28;;;;;;;11.15;6.35;;;;;;;;;;6365698;27;20059;-81
2023/03/22 16:51:30;;;;;;;13.63;6.40;;;;;;;;;;6363615;27;20043;-79
2023/03/22 16:54:31;;;;;;;12.13;6.70;;;;;;;;;;6365056;27;20046;-74
2023/03/22 16:57:33;;;;;;;12.68;6.78;;;;;;;;;;6365468;27;20051;-80
2023/03/22 17:00:35;;;;;;;11.02;6.93;;;;;;;;;;6364189;27;20381;-80
2023/03/22 17:03:38;;;;;;;10.52;6.15;;;;;;;;;;6361446;27;20056;-80
2023/03/22 17:06:40;;;;;;;12.40;6.55;;;;;;;;;;6361731;27;20248;-80
2023/03/22 17:09:42;;;;;;;13.65;6.75;;;;;;;;;;6364264;27;20039;-78
2023/03/22 17:12:45;;;;;;;11.43;7.30;;;;;;;;;;6365086;27;20051;-80
2023/03/22 17:15:48;;;;;;;10.50;6.30;;;;;;;;;;6361954;27;20141;-79
2023/03/22 17:18:52;;;;;;;11.50;7.30;;;;;;;;;;6361170;27;20053;-76
2023/03/22 17:21:54;;;;;;;11.27;6.85;;;;;;;;;;6368393;27;20048;-78
2023/03/22 17:24:57;;;;;;;11.20;6.65;;;;;;;;;;6370076;27;20291;-80
2023/03/22 17:27:59;;;;;;;19.77;7.72;;;;;;;;;;6367498;27;20557;-81
2023/03/22 17:31:02;;;;;;;14.48;7.47;;;;;;;;;;6367752;27;20069;-81
2023/03/22 17:34:05;;;;;;;14.38;7.25;;;;;;;;;;6364887;27;20055;-75
2023/03/22 17:37:07;;;;;;;11.60;6.28;;;;;;;;;;6373006;27;20047;-80
2023/03/22 17:40:11;;;;;;;20.45;7.10;;;;;;;;;;6370168;27;20381;-79
2023/03/22 17:43:13;;;;;;;12.80;7.28;;;;;;;;;;6366676;27;20096;-78
2023/03/22 17:46:15;;;;;;;12.45;7.07;;;;;;;;;;6370884;27;20100;-80
2023/03/22 17:49:18;;;;;;;14.27;7.38;;;;;;;;;;6364937;27;20051;-80
2023/03/22 17:52:20;;;;;;;12.48;7.18;;;;;;;;;;6366809;27;20055;-77
2023/03/22 17:55:24;;;;;;;12.98;6.95;;;;;;;;;;6363559;27;20051;-79
2023/03/22 17:58:26;;;;;;;12.52;7.57;;;;;;;;;;6361367;27;20331;-81
2023/03/22 18:01:28;;;;;;;13.20;7.63;;;;;;;;;;6359802;27;20057;-73
2023/03/22 18:04:33;;;;;;;15.48;8.35;;;;;;;;;;6364749;27;20060;-78
2023/03/22 18:07:34;;;;;;;19.52;9.55;;;;;;;;;;6362471;27;20039;-80